Time;durP1;ratioP1;P1;durP2;ratioP2;P2;SDS_P1;SDS_P2;PMS_P1;PMS_P2;Temp;Humidity;BMP_temperature;BMP_pressure;BME280_temperature;BME280_humidity;BME280_pressure;Samples;Min_cycle;Max_cycle;Signal;HPM_P1;HPM_P2
2022/08/01 00:00:33;;;;;;;8.50;2.87;;;21.50;99.90;;;;;;5114545;27;20482;-75
2022/08/01 00:02:58;;;;;;;8.77;2.80;;;21.50;99.90;;;;;;5112701;28;20035;-75
2022/08/01 00:05:24;;;;;;;5.90;3.07;;;21.50;99.90;;;;;;5129867;27;20623;-74
2022/08/01 00:07:49;;;;;;;7.33;2.87;;;21.40;99.90;;;;;;5113992;28;20040;-74
2022/08/01 00:10:16;;;;;;;5.80;2.83;;;21.50;99.90;;;;;;5114064;28;20031;-74
2022/08/01 00:12:43;;;;;;;6.43;3.15;;;21.50;99.90;;;;;;5113895;28;20036;-75
2022/08/01 00:15:11;;;;;;;4.82;2.90;;;21.40;99.90;;;;;;5113759;28;20035;-75
2022/08/01 00:17:37;;;;;;;9.95;2.83;;;21.50;99.90;;;;;;5129474;27;20028;-74
2022/08/01 00:20:05;;;;;;;5.45;2.67;;;21.40;99.90;;;;;;5129649;27;20047;-74
2022/08/01 00:22:33;;;;;;;8.05;3.28;;;21.40;99.90;;;;;;5129293;27;20111;-74
2022/08/01 00:24:58;;;;;;;4.53;3.13;;;21.40;99.90;;;;;;5113670;28;20578;-74
2022/08/01 00:27:24;;;;;;;4.03;2.73;;;21.40;99.90;;;;;;5113529;28;20099;-74
2022/08/01 00:29:50;;;;;;;6.07;3.10;;;21.30;99.90;;;;;;5113824;28;20023;-74
2022/08/01 00:32:15;;;;;;;4.60;2.93;;;21.30;99.90;;;;;;5113453;28;20027;-74
2022/08/01 00:34:41;;;;;;;4.90;2.90;;;21.30;99.90;;;;;;5129129;27;20039;-74
2022/08/01 00:37:06;;;;;;;5.77;3.20;;;21.30;99.90;;;;;;5113425;28;20552;-74
2022/08/01 00:39:35;;;;;;;4.10;3.00;;;21.20;99.90;;;;;;5129471;27;20036;-74
2022/08/01 00:42:06;;;;;;;4.78;3.10;;;21.20;99.90;;;;;;5113449;28;20011;-74
2022/08/01 00:44:31;;;;;;;7.65;3.17;;;21.20;99.90;;;;;;5129341;27;20118;-74
2022/08/01 00:46:57;;;;;;;7.40;3.37;;;21.10;99.90;;;;;;5113389;28;20067;-75
2022/08/01 00:49:22;;;;;;;5.97;3.20;;;21.10;99.90;;;;;;5113675;28;20031;-74
2022/08/01 00:51:48;;;;;;;6.60;3.00;;;21.10;99.90;;;;;;5128838;27;20114;-75
2022/08/01 00:54:15;;;;;;;4.17;3.13;;;21.00;99.90;;;;;;5128420;27;20051;-74
2022/08/01 00:56:41;;;;;;;5.43;3.22;;;21.00;99.90;;;;;;5112997;28;20098;-74
2022/08/01 00:59:08;;;;;;;5.33;3.27;;;21.00;99.90;;;;;;5113290;28;20483;-75
2022/08/01 01:01:34;;;;;;;5.65;3.17;;;21.00;99.90;;;;;;5128740;27;20081;-74
2022/08/01 01:04:00;;;;;;;7.35;3.40;;;20.90;99.90;;;;;;5112078;28;20032;-74
2022/08/01 01:06:44;;;;;;;6.30;3.20;;;20.90;99.90;;;;;;5128699;27;20050;-73
2022/08/01 01:09:26;;;;;;;6.05;3.28;;;20.90;99.90;;;;;;5112825;28;20102;-74
2022/08/01 01:12:01;;;;;;;6.10;3.30;;;20.80;99.90;;;;;;5128702;27;20066;-75
2022/08/01 01:14:34;;;;;;;5.72;3.53;;;20.80;99.90;;;;;;5113151;28;20065;-75
2022/08/01 01:17:05;;;;;;;6.18;3.60;;;20.60;99.90;;;;;;5112595;28;20441;-75
2022/08/01 01:19:35;;;;;;;7.15;3.83;;;20.60;99.90;;;;;;5128567;27;20055;-74
2022/08/01 01:22:28;;;;;;;6.63;3.67;;;20.50;99.90;;;;;;5112554;28;20035;-74
2022/08/01 01:25:23;;;;;;;5.90;3.78;;;20.50;99.90;;;;;;5112505;28;20024;-74
2022/08/01 01:28:19;;;;;;;7.82;3.83;;;20.40;99.90;;;;;;5112496;28;20027;-73
2022/08/01 01:30:50;;;;;;;5.43;3.50;;;20.30;99.90;;;;;;5112465;27;20042;-74
2022/08/01 01:33:17;;;;;;;6.95;3.88;;;20.20;99.90;;;;;;5110888;28;20152;-74
2022/08/01 01:35:45;;;;;;;;;;;20.20;99.90;;;;;;5128387;27;20502;-74
2022/08/01 01:38:19;;;;;;;6.78;3.83;;;20.20;99.90;;;;;;5112301;28;19934;-74
2022/08/01 01:40:47;;;;;;;4.93;3.55;;;20.10;99.90;;;;;;5112196;28;20051;-75
2022/08/01 01:43:13;;;;;;;5.30;3.50;;;20.00;99.90;;;;;;5127885;27;20120;-75
2022/08/01 01:45:40;;;;;;;6.13;4.18;;;20.00;99.90;;;;;;5127978;27;20036;-75
2022/08/01 01:48:07;;;;;;;5.07;3.88;;;19.90;99.90;;;;;;5112113;28;20028;-75
2022/08/01 01:50:35;;;;;;;7.43;4.20;;;19.90;99.90;;;;;;5127839;27;20053;-75
2022/08/01 01:53:02;;;;;;;8.85;4.18;;;19.80;99.90;;;;;;5127715;27;20035;-75
2022/08/01 01:55:29;;;;;;;5.20;3.55;;;19.80;99.90;;;;;;5127568;27;20343;-74
2022/08/01 01:57:56;;;;;;;7.88;4.07;;;19.80;99.90;;;;;;5127705;27;20039;-75
2022/08/01 02:00:23;;;;;;;5.85;4.13;;;19.80;99.90;;;;;;5111856;28;20027;-74
2022/08/01 02:02:51;;;;;;;6.85;3.45;;;19.80;99.90;;;;;;5111663;28;20088;-73
2022/08/01 02:05:17;;;;;;;9.77;3.60;;;19.80;99.90;;;;;;5111866;28;20016;-75
2022/08/01 02:07:44;;;;;;;6.82;4.28;;;19.80;99.90;;;;;;5127328;27;20040;-75
2022/08/01 02:10:10;;;;;;;;;;;19.80;99.90;;;;;;5127982;27;20100;-75
2022/08/01 02:12:41;;;;;;;5.05;3.58;;;19.80;99.90;;;;;;5110116;28;20282;-74
2022/08/01 02:15:09;;;;;;;5.63;4.00;;;19.80;99.90;;;;;;5111228;28;20087;-75
2022/08/01 02:17:41;;;;;;;5.00;3.58;;;19.90;99.90;;;;;;5127101;27;20034;-75
2022/08/01 02:20:07;;;;;;;10.95;3.67;;;19.90;99.90;;;;;;5111440;28;20027;-75
2022/08/01 02:22:40;;;;;;;7.97;3.40;;;19.90;99.90;;;;;;5111407;28;20106;-75
2022/08/01 02:25:28;;;;;;;5.28;3.88;;;19.90;99.90;;;;;;5111328;28;20323;-75
2022/08/01 02:28:07;;;;;;;4.95;3.30;;;19.80;99.90;;;;;;5109769;28;20035;-74
2022/08/01 02:30:36;;;;;;;6.22;3.90;;;19.90;99.90;;;;;;5111268;28;20032;-74
2022/08/01 02:33:31;;;;;;;7.00;3.72;;;19.90;99.90;;;;;;5111262;28;20404;-74
2022/08/01 02:35:59;;;;;;;6.53;3.53;;;19.90;99.90;;;;;;5111199;28;20031;-74
2022/08/01 02:38:30;;;;;;;5.53;3.55;;;19.90;99.90;;;;;;5111271;28;20031;-74
2022/08/01 02:40:59;;;;;;;5.78;3.10;;;19.90;99.90;;;;;;5126869;27;20020;-74
2022/08/01 02:43:28;;;;;;;5.45;3.40;;;19.80;99.90;;;;;;5126568;27;20402;-74
2022/08/01 02:45:58;;;;;;;6.43;3.90;;;19.90;99.90;;;;;;5111202;28;20104;-74
2022/08/01 02:48:26;;;;;;;6.03;3.58;;;19.90;99.90;;;;;;5111079;28;20126;-75
2022/08/01 02:50:54;;;;;;;4.78;3.42;;;19.90;99.90;;;;;;5126819;27;20031;-74
2022/08/01 02:53:23;;;;;;;4.80;2.95;;;19.90;99.90;;;;;;5126529;27;20043;-73
2022/08/01 02:55:49;;;;;;;6.80;3.25;;;19.90;99.90;;;;;;5110772;28;20491;-74
2022/08/01 02:58:18;;;;;;;7.32;3.40;;;19.90;99.90;;;;;;5110840;28;20102;-74
2022/08/01 03:00:45;;;;;;;6.22;3.33;;;19.90;99.90;;;;;;5110718;28;20034;-73
2022/08/01 03:03:13;;;;;;;4.95;2.90;;;19.90;99.90;;;;;;5110764;28;20047;-74
2022/08/01 03:05:40;;;;;;;5.97;3.20;;;19.90;99.90;;;;;;5110651;28;20024;-74
2022/08/01 03:08:07;;;;;;;4.82;3.03;;;20.00;99.90;;;;;;5110722;28;20462;-74
2022/08/01 03:10:35;;;;;;;8.10;3.25;;;20.00;99.90;;;;;;5110881;28;20039;-74
2022/08/01 03:13:04;;;;;;;5.70;3.25;;;20.00;99.90;;;;;;5110666;28;20027;-75
2022/08/01 03:15:33;;;;;;;5.20;3.17;;;20.10;99.90;;;;;;5110606;28;20027;-75
2022/08/01 03:18:01;;;;;;;6.57;3.58;;;20.10;99.90;;;;;;5110415;28;20035;-75
2022/08/01 03:20:29;;;;;;;6.30;3.30;;;20.10;99.90;;;;;;5110644;28;20023;-74
2022/08/01 03:22:57;;;;;;;9.70;3.13;;;20.10;99.90;;;;;;5110628;28;20474;-74
2022/08/01 03:25:25;;;;;;;7.68;3.40;;;20.00;99.90;;;;;;5126302;27;20115;-74
2022/08/01 03:27:57;;;;;;;5.18;3.42;;;20.00;99.90;;;;;;5114732;28;20036;-74
2022/08/01 03:30:25;;;;;;;4.13;2.85;;;20.00;99.90;;;;;;5114676;28;20395;-74
2022/08/01 03:32:51;;;;;;;4.15;2.95;;;20.00;99.90;;;;;;5130308;27;20138;-75
2022/08/01 03:35:17;;;;;;;6.72;3.10;;;20.00;99.90;;;;;;5130536;27;20027;-75
2022/08/01 03:37:47;;;;;;;3.75;2.60;;;20.00;99.90;;;;;;5114932;28;20121;-74
2022/08/01 03:40:18;;;;;;;6.55;2.92;;;20.10;99.90;;;;;;5113078;28;20036;-75
2022/08/01 03:42:47;;;;;;;4.72;3.28;;;20.10;99.90;;;;;;5114396;28;20042;-73
2022/08/01 03:45:24;;;;;;;3.95;3.08;;;20.10;99.90;;;;;;5114271;28;20042;-74
2022/08/01 03:47:57;;;;;;;4.18;2.80;;;20.10;99.90;;;;;;5114387;28;20108;-74
2022/08/01 03:50:24;;;;;;;3.65;2.40;;;20.10;99.90;;;;;;5130069;27;20087;-74
2022/08/01 03:52:53;;;;;;;4.72;2.63;;;20.10;99.90;;;;;;5129915;27;20139;-74
2022/08/01 03:55:21;;;;;;;6.60;2.88;;;20.10;99.90;;;;;;5114089;28;20047;-74
2022/08/01 03:57:48;;;;;;;5.72;2.55;;;20.20;99.90;;;;;;5114137;28;20387;-74
2022/08/01 04:00:18;;;;;;;4.60;2.80;;;20.20;99.90;;;;;;5114175;28;20330;-74
2022/08/01 04:02:48;;;;;;;6.40;2.70;;;20.30;99.90;;;;;;5129937;27;20055;-74
2022/08/01 04:05:14;;;;;;;4.78;2.65;;;20.30;99.90;;;;;;5129787;27;20020;-74
2022/08/01 04:07:42;;;;;;;;;;;20.40;99.90;;;;;;5130341;27;20024;-73
2022/08/01 04:10:08;;;;;;;4.57;2.50;;;20.40;99.90;;;;;;5114363;28;19903;-74
2022/08/01 04:12:34;;;;;;;5.23;2.57;;;20.40;99.90;;;;;;5129602;27;20100;-75
2022/08/01 04:15:00;;;;;;;4.28;2.90;;;20.40;99.90;;;;;;5113937;28;20050;-74
2022/08/01 04:17:25;;;;;;;4.40;2.90;;;20.40;99.90;;;;;;5113406;28;20030;-74
2022/08/01 04:19:51;;;;;;;5.37;2.80;;;20.40;99.90;;;;;;5113907;28;20031;-74
2022/08/01 04:22:17;;;;;;;4.33;2.63;;;20.40;99.90;;;;;;5129566;27;20115;-74
2022/08/01 04:24:50;;;;;;;7.25;2.63;;;20.40;99.90;;;;;;5114137;27;20611;-74
2022/08/01 04:27:23;;;;;;;4.07;2.83;;;20.40;99.90;;;;;;5113452;28;20039;-74
2022/08/01 04:29:54;;;;;;;5.30;2.83;;;20.40;99.90;;;;;;5113766;28;20498;-74
2022/08/01 04:32:22;;;;;;;4.13;2.70;;;20.50;99.90;;;;;;5129385;27;20456;-75
2022/08/01 04:34:49;;;;;;;10.98;2.83;;;20.50;99.90;;;;;;5129410;27;20036;-74
2022/08/01 04:37:18;;;;;;;6.78;3.40;;;20.50;99.90;;;;;;5129128;27;20024;-75
2022/08/01 04:39:46;;;;;;;6.60;3.28;;;20.50;99.90;;;;;;5114074;28;20473;-75
2022/08/01 04:42:15;;;;;;;6.03;2.80;;;20.60;99.90;;;;;;5113506;28;20024;-75
2022/08/01 04:44:41;;;;;;;7.07;2.78;;;20.60;99.90;;;;;;5114053;28;20027;-75
2022/08/01 04:47:08;;;;;;;4.70;2.65;;;20.60;99.90;;;;;;5113495;28;20028;-73
2022/08/01 04:49:34;;;;;;;5.05;2.65;;;20.70;99.90;;;;;;5113835;28;20039;-74
2022/08/01 04:52:00;;;;;;;3.70;2.33;;;20.80;99.90;;;;;;5113338;28;20051;-74
2022/08/01 04:54:27;;;;;;;5.32;2.50;;;20.80;99.90;;;;;;5113324;28;20514;-75
2022/08/01 04:56:58;;;;;;;;;;;21.00;99.90;;;;;;5113643;28;20495;-74
2022/08/01 04:59:39;;;;;;;3.88;2.33;;;21.00;99.90;;;;;;5113527;28;19923;-74
2022/08/01 05:02:05;;;;;;;6.65;2.47;;;21.00;99.90;;;;;;5128890;27;20471;-75
2022/08/01 05:04:31;;;;;;;4.70;2.35;;;21.00;99.90;;;;;;5129011;27;20528;-74
2022/08/01 05:06:56;;;;;;;4.10;2.77;;;21.00;99.90;;;;;;5113210;28;20036;-73
2022/08/01 05:09:22;;;;;;;4.17;2.47;;;21.00;99.90;;;;;;5113263;28;20031;-73
2022/08/01 05:11:48;;;;;;;8.87;2.60;;;20.90;99.90;;;;;;5112780;28;20027;-76
2022/08/01 05:14:13;;;;;;;4.30;2.60;;;20.90;99.90;;;;;;5112959;28;20039;-74
2022/08/01 05:16:39;;;;;;;6.53;3.00;;;20.80;99.90;;;;;;5112661;28;20027;-74
2022/08/01 05:19:04;;;;;;;6.40;2.50;;;20.90;99.90;;;;;;5112560;28;20115;-75
2022/08/01 05:21:30;;;;;;;5.67;2.80;;;21.00;99.90;;;;;;5112526;28;20012;-75
2022/08/01 05:23:56;;;;;;;5.83;2.73;;;20.90;99.90;;;;;;5128515;27;20035;-74
2022/08/01 05:26:21;;;;;;;6.47;2.83;;;21.00;99.90;;;;;;5111337;28;20020;-75
2022/08/01 05:28:48;;;;;;;;;;;21.00;99.90;;;;;;5113188;28;20043;-75
2022/08/01 05:31:13;;;;;;;5.57;2.53;;;21.10;99.90;;;;;;5112752;28;19912;-74
2022/08/01 05:33:39;;;;;;;3.87;2.60;;;21.20;99.90;;;;;;5112656;28;20081;-75
2022/08/01 05:36:05;;;;;;;6.13;2.73;;;21.20;99.90;;;;;;5112252;28;20028;-74
2022/08/01 05:38:30;;;;;;;4.23;2.43;;;21.10;99.90;;;;;;5112204;28;20084;-75
2022/08/01 05:40:56;;;;;;;6.27;2.90;;;21.10;99.90;;;;;;5112257;28;20020;-74
2022/08/01 05:43:21;;;;;;;4.30;2.73;;;21.10;99.90;;;;;;5112293;28;20085;-74
2022/08/01 05:45:47;;;;;;;5.07;2.77;;;21.30;99.90;;;;;;5127966;27;20043;-74
2022/08/01 05:48:13;;;;;;;5.80;3.00;;;21.30;99.90;;;;;;5111995;28;20046;-74
2022/08/01 05:50:38;;;;;;;5.30;3.13;;;21.40;99.90;;;;;;5127669;27;20111;-74
2022/08/01 05:53:04;;;;;;;4.60;2.70;;;21.50;99.90;;;;;;5127917;27;20031;-75
2022/08/01 05:55:30;;;;;;;4.90;2.90;;;21.40;99.90;;;;;;5127543;27;20120;-74
2022/08/01 05:57:55;;;;;;;5.67;3.00;;;21.40;99.90;;;;;;5127525;27;20036;-74
2022/08/01 06:00:21;;;;;;;4.30;2.57;;;21.40;99.90;;;;;;5111770;28;20042;-75
2022/08/01 06:02:46;;;;;;;6.43;3.00;;;21.60;99.90;;;;;;5127359;27;20031;-75
2022/08/01 06:05:12;;;;;;;4.13;2.43;;;21.70;99.90;;;;;;5127435;27;20016;-75
2022/08/01 06:07:39;;;;;;;7.03;2.90;;;21.80;99.90;;;;;;5111748;28;20027;-74
2022/08/01 06:10:05;;;;;;;;;;;21.90;99.90;;;;;;5111930;28;20019;-75
2022/08/01 06:12:34;;;;;;;8.93;2.85;;;22.00;99.90;;;;;;5111432;28;20010;-74
2022/08/01 06:15:00;;;;;;;4.65;2.80;;;22.10;99.90;;;;;;5127213;27;20475;-75
2022/08/01 06:17:26;;;;;;;4.37;2.90;;;22.30;99.90;;;;;;5111610;28;20036;-75
2022/08/01 06:19:51;;;;;;;8.77;3.23;;;22.30;99.90;;;;;;5111488;28;20028;-76
2022/08/01 06:22:17;;;;;;;7.33;3.17;;;22.40;99.90;;;;;;5111809;28;20514;-75
2022/08/01 06:24:42;;;;;;;5.00;2.90;;;22.50;99.90;;;;;;5127272;27;20036;-75
2022/08/01 06:27:08;;;;;;;6.50;3.70;;;22.60;99.90;;;;;;5127307;27;20026;-75
2022/08/01 06:29:34;;;;;;;5.50;3.03;;;22.50;99.90;;;;;;5111415;28;20111;-75
2022/08/01 06:32:00;;;;;;;3.63;2.72;;;22.60;99.90;;;;;;5111202;28;20077;-75
2022/08/01 06:34:26;;;;;;;4.60;2.53;;;22.60;99.90;;;;;;5111139;28;20443;-74
2022/08/01 06:36:51;;;;;;;4.93;2.57;;;22.60;99.90;;;;;;5126875;27;20161;-75
2022/08/01 06:39:17;;;;;;;7.13;2.90;;;22.60;99.90;;;;;;5127058;27;20065;-75
2022/08/01 06:41:45;;;;;;;8.67;3.43;;;22.80;99.90;;;;;;5111264;28;20066;-75
2022/08/01 06:44:11;;;;;;;6.00;2.90;;;22.90;99.90;;;;;;5111691;28;20024;-74
2022/08/01 06:46:37;;;;;;;5.40;2.83;;;23.00;99.90;;;;;;5110935;28;20390;-74
2022/08/01 06:49:02;;;;;;;6.53;3.27;;;23.10;99.90;;;;;;5126651;27;20503;-75
2022/08/01 06:51:28;;;;;;;4.50;2.73;;;23.20;99.90;;;;;;5126713;27;20528;-75
2022/08/01 06:53:54;;;;;;;7.97;2.93;;;23.30;99.90;;;;;;5126222;27;20620;-74
2022/08/01 06:56:19;;;;;;;6.53;3.40;;;23.30;99.90;;;;;;5111189;28;20053;-75
2022/08/01 06:58:45;;;;;;;6.13;3.43;;;23.30;99.90;;;;;;5110935;28;20090;-75
2022/08/01 07:01:11;;;;;;;5.57;2.93;;;23.40;99.90;;;;;;5109873;28;20035;-74
2022/08/01 07:03:36;;;;;;;4.50;2.60;;;23.50;99.90;;;;;;5110691;28;20032;-76
2022/08/01 07:06:02;;;;;;;4.20;3.00;;;23.60;99.90;;;;;;5126364;27;20395;-76
2022/08/01 07:08:28;;;;;;;4.47;2.88;;;23.70;99.90;;;;;;5109774;28;20470;-74
2022/08/01 07:10:55;;;;;;;5.67;2.87;;;23.70;99.90;;;;;;5104918;28;20031;-66
2022/08/01 07:13:21;;;;;;;;;;;23.70;99.90;;;;;;5112512;28;20272;-66
2022/08/01 07:15:47;;;;;;;6.95;3.50;;;23.70;99.90;;;;;;5109963;28;19960;-69
2022/08/01 07:18:13;;;;;;;4.45;3.08;;;23.60;99.90;;;;;;5103211;28;20435;-67
2022/08/01 07:20:38;;;;;;;5.47;2.83;;;23.70;99.90;;;;;;5107863;28;20055;-68
2022/08/01 07:23:04;;;;;;;4.77;2.93;;;23.90;99.90;;;;;;5103404;28;21383;-66
2022/08/01 07:25:30;;;;;;;5.27;3.27;;;24.20;99.90;;;;;;5108809;28;20031;-67
2022/08/01 07:27:55;;;;;;;5.43;2.47;;;24.40;99.90;;;;;;5102939;28;20543;-67
2022/08/01 07:30:21;;;;;;;4.87;3.13;;;24.60;99.90;;;;;;5106782;28;20039;-68
2022/08/01 07:32:47;;;;;;;4.37;2.60;;;24.70;99.90;;;;;;5105743;28;20070;-67
2022/08/01 07:35:12;;;;;;;4.57;2.78;;;24.90;99.90;;;;;;5105311;28;20063;-67
2022/08/01 07:37:38;;;;;;;4.83;2.83;;;25.10;99.50;;;;;;5100125;28;20421;-67
2022/08/01 07:40:05;;;;;;;4.03;2.47;;;25.20;99.00;;;;;;5106752;28;20030;-67
2022/08/01 07:42:31;;;;;;;;;;;25.20;98.50;;;;;;5107661;28;20016;-67
2022/08/01 07:44:56;;;;;;;3.85;2.85;;;25.10;98.70;;;;;;5098794;28;19926;-68
2022/08/01 07:47:25;;;;;;;6.53;2.70;;;24.90;98.80;;;;;;5109682;28;20035;-67
2022/08/01 07:49:52;;;;;;;4.50;2.67;;;24.80;99.00;;;;;;5095353;28;20445;-67
2022/08/01 07:52:18;;;;;;;5.90;2.67;;;24.80;99.30;;;;;;5107811;28;20092;-67
2022/08/01 07:54:44;;;;;;;5.90;2.75;;;24.90;99.10;;;;;;5108083;28;20064;-67
2022/08/01 07:57:09;;;;;;;3.83;2.60;;;25.00;99.10;;;;;;5109894;28;20089;-68
2022/08/01 07:59:35;;;;;;;5.80;3.00;;;25.10;99.00;;;;;;5106146;28;20034;-66
2022/08/01 08:02:00;;;;;;;5.70;3.27;;;25.40;98.80;;;;;;5109663;28;20133;-67
2022/08/01 08:04:27;;;;;;;7.20;3.00;;;25.50;98.70;;;;;;5107134;28;20043;-67
2022/08/01 08:06:53;;;;;;;4.40;2.92;;;25.60;98.30;;;;;;5105848;28;20028;-66
2022/08/01 08:09:19;;;;;;;8.75;3.22;;;25.50;98.70;;;;;;5109584;28;20042;-65
2022/08/01 08:11:45;;;;;;;6.17;3.10;;;25.40;99.00;;;;;;5107883;28;20031;-67
2022/08/01 08:14:11;;;;;;;;;;;25.60;99.00;;;;;;5104736;28;20367;-66
2022/08/01 08:16:37;;;;;;;5.03;3.00;;;25.80;98.50;;;;;;5108175;28;20415;-65
2022/08/01 08:19:03;;;;;;;4.93;3.08;;;26.00;98.70;;;;;;5114063;28;20032;-65
2022/08/01 08:21:30;;;;;;;4.20;2.90;;;26.10;98.10;;;;;;5108993;28;20291;-66
2022/08/01 08:26:40;;;;;;;5.65;3.10;;;26.40;98.60;;;;;;5100651;28;20176;-66
2022/08/01 08:29:06;;;;;;;6.65;3.28;;;26.70;98.50;;;;;;5112263;28;20035;-65
2022/08/01 08:31:32;;;;;;;8.23;3.03;;;27.00;97.90;;;;;;5111792;28;20205;-65
2022/08/01 08:33:58;;;;;;;10.65;3.72;;;27.00;97.40;;;;;;5110792;28;20119;-66
2022/08/01 08:36:24;;;;;;;7.37;3.63;;;27.10;97.50;;;;;;5108791;28;20043;-65
2022/08/01 08:38:49;;;;;;;4.78;3.45;;;26.80;97.10;;;;;;5112061;28;20038;-67
2022/08/01 08:41:16;;;;;;;5.83;3.30;;;26.70;97.10;;;;;;5112791;28;20024;-66
2022/08/01 08:43:41;;;;;;;7.22;3.63;;;26.60;97.60;;;;;;5109566;28;20366;-65
2022/08/01 08:46:08;;;;;;;5.83;3.43;;;26.80;97.40;;;;;;5108347;28;20118;-65
2022/08/01 08:48:34;;;;;;;7.00;3.13;;;26.90;97.10;;;;;;5111249;28;20638;-66
2022/08/01 08:51:01;;;;;;;8.13;4.10;;;26.90;97.00;;;;;;5111791;28;20032;-66
2022/08/01 08:53:28;;;;;;;7.07;3.50;;;26.90;97.10;;;;;;5107666;28;20041;-66
2022/08/01 08:55:55;;;;;;;;;;;27.20;97.40;;;;;;5096012;28;20046;-66
2022/08/01 08:58:25;;;;;;;9.77;4.00;;;27.50;97.20;;;;;;5112922;28;20301;-67
2022/08/01 09:00:51;;;;;;;6.43;3.65;;;27.70;96.60;;;;;;5108526;28;20370;-65
2022/08/01 09:03:16;;;;;;;6.88;4.18;;;27.80;96.50;;;;;;5109724;28;20459;-65
2022/08/01 09:05:44;;;;;;;5.13;3.72;;;28.10;96.10;;;;;;5111004;28;20037;-66
2022/08/01 09:08:09;;;;;;;7.90;3.65;;;28.40;95.30;;;;;;5111264;28;20370;-66
2022/08/01 09:10:35;;;;;;;7.07;3.77;;;28.70;95.40;;;;;;5110715;28;20107;-68
2022/08/01 09:13:12;;;;;;;6.50;3.47;;;28.90;95.30;;;;;;5097420;28;20035;-66
2022/08/01 09:15:56;;;;;;;7.32;3.70;;;29.20;94.50;;;;;;5108336;27;20085;-66
2022/08/01 09:18:35;;;;;;;5.85;3.88;;;28.90;94.00;;;;;;5110210;28;20024;-65
2022/08/01 09:21:07;;;;;;;6.22;4.38;;;28.40;94.70;;;;;;5105105;28;20015;-65
2022/08/01 09:23:39;;;;;;;6.00;3.50;;;28.50;94.80;;;;;;5112027;28;20081;-66
2022/08/01 09:26:06;;;;;;;6.75;4.10;;;28.60;95.00;;;;;;5104844;27;20111;-65
2022/08/01 09:28:32;;;;;;;6.63;4.18;;;28.20;95.00;;;;;;5114135;28;20092;-65
2022/08/01 09:30:58;;;;;;;7.43;3.88;;;28.00;95.40;;;;;;5101926;28;20467;-66
2022/08/01 09:33:24;;;;;;;6.90;3.78;;;28.10;94.90;;;;;;5107264;28;20126;-66
2022/08/01 09:35:57;;;;;;;4.28;3.45;;;28.30;95.10;;;;;;5110537;28;20027;-67
2022/08/01 09:38:26;;;;;;;5.38;3.95;;;28.40;94.70;;;;;;5103733;28;20092;-66
2022/08/01 09:40:55;;;;;;;7.35;4.10;;;28.40;94.60;;;;;;5103216;28;20027;-65
2022/08/01 09:43:22;;;;;;;8.75;4.18;;;28.30;95.00;;;;;;5106792;28;20066;-64
2022/08/01 09:45:48;;;;;;;6.43;4.47;;;28.20;95.30;;;;;;5107585;28;20447;-65
2022/08/01 09:48:15;;;;;;;6.90;4.15;;;27.90;95.80;;;;;;5109289;28;20040;-64
2022/08/01 09:50:50;;;;;;;5.63;4.28;;;28.10;95.70;;;;;;5108618;28;20035;-69
2022/08/01 09:53:16;;;;;;;7.13;4.20;;;28.20;95.60;;;;;;5107725;28;20024;-68
2022/08/01 09:55:42;;;;;;;;;;;28.40;95.70;;;;;;5100936;28;20709;-67
2022/08/01 09:58:08;;;;;;;5.85;4.03;;;28.60;95.60;;;;;;5106922;28;20008;-67
2022/08/01 10:00:35;;;;;;;6.20;4.22;;;28.50;95.50;;;;;;5107937;28;20475;-68
2022/08/01 10:03:22;;;;;;;5.15;3.92;;;28.40;95.80;;;;;;5101096;28;20092;-68
2022/08/01 10:05:48;;;;;;;6.72;4.18;;;28.30;96.00;;;;;;5108947;28;20119;-66
2022/08/01 10:08:14;;;;;;;6.80;4.45;;;28.60;96.10;;;;;;5106105;28;20086;-67
2022/08/01 10:10:40;;;;;;;26.20;18.63;;;28.80;95.70;;;;;;5104730;28;20555;-66
2022/08/01 10:13:07;;;;;;;6.40;4.38;;;29.10;95.50;;;;;;5112352;28;20032;-66
2022/08/01 10:15:34;;;;;;;6.07;4.43;;;29.10;95.00;;;;;;5106888;28;20043;-66
2022/08/01 10:18:03;;;;;;;6.40;4.25;;;28.90;95.50;;;;;;5094834;28;20573;-66
2022/08/01 10:20:31;;;;;;;9.07;4.20;;;29.10;95.70;;;;;;5103479;28;20417;-66
2022/08/01 10:23:03;;;;;;;7.25;4.10;;;29.30;95.50;;;;;;5108326;27;20106;-66
2022/08/01 10:25:33;;;;;;;7.03;4.55;;;29.50;95.00;;;;;;5108788;28;20073;-65
2022/08/01 10:28:01;;;;;;;5.72;4.28;;;29.50;95.20;;;;;;5106978;28;20081;-65
2022/08/01 10:30:28;;;;;;;6.05;4.03;;;29.50;95.30;;;;;;5109406;28;20393;-67
2022/08/01 10:32:55;;;;;;;9.98;4.70;;;29.70;95.20;;;;;;5094824;28;20055;-66
2022/08/01 10:35:21;;;;;;;6.53;4.45;;;29.90;94.50;;;;;;5103226;28;20019;-66
2022/08/01 10:37:48;;;;;;;;;;;30.10;94.30;;;;;;5111466;28;20185;-65
2022/08/01 10:40:14;;;;;;;6.55;4.38;;;30.20;94.00;;;;;;5110678;28;20355;-66
2022/08/01 10:42:44;;;;;;;6.82;4.30;;;30.30;93.90;;;;;;5111300;28;20024;-66
2022/08/01 10:45:13;;;;;;;6.22;4.70;;;30.30;93.30;;;;;;5106235;28;20111;-66
2022/08/01 10:47:49;;;;;;;5.20;4.28;;;30.30;93.50;;;;;;5107526;28;20516;-66
2022/08/01 10:50:47;;;;;;;5.50;4.35;;;30.30;93.40;;;;;;5102923;28;20024;-66
2022/08/01 10:53:16;;;;;;;5.93;4.30;;;29.80;93.90;;;;;;5089146;28;20096;-65
2022/08/01 10:56:03;;;;;;;9.07;4.35;;;29.60;94.00;;;;;;5104744;28;20057;-65
2022/08/01 10:58:32;;;;;;;7.25;4.00;;;29.20;94.40;;;;;;5100597;28;20031;-65
2022/08/01 11:01:19;;;;;;;7.88;4.18;;;29.10;94.90;;;;;;5095005;28;20491;-67
2022/08/01 11:04:07;;;;;;;5.65;4.25;;;28.80;95.40;;;;;;5108197;28;20023;-68
2022/08/01 11:06:33;;;;;;;7.53;4.38;;;28.60;95.90;;;;;;5108433;28;20042;-68
2022/08/01 11:09:01;;;;;;;6.23;4.07;;;28.30;96.40;;;;;;5109058;28;20040;-67
2022/08/01 11:11:27;;;;;;;7.32;4.55;;;28.10;96.80;;;;;;5102900;28;20028;-68
2022/08/01 11:14:03;;;;;;;7.10;4.55;;;28.00;97.40;;;;;;5106718;28;20030;-67
2022/08/01 11:16:31;;;;;;;6.70;4.32;;;28.00;97.10;;;;;;5106308;28;20199;-67
2022/08/01 11:18:57;;;;;;;6.07;4.38;;;28.40;96.40;;;;;;5106071;28;20054;-67
2022/08/01 11:21:52;;;;;;;8.25;4.72;;;28.80;95.60;;;;;;5109318;28;20479;-68
2022/08/01 11:24:46;;;;;;;7.43;4.47;;;29.30;95.30;;;;;;5103550;28;20040;-67
2022/08/01 11:27:19;;;;;;;8.18;4.95;;;28.90;95.80;;;;;;5107483;28;20028;-66
2022/08/01 11:30:21;;;;;;;6.22;4.38;;;28.40;96.50;;;;;;5107292;28;20039;-66
2022/08/01 11:32:57;;;;;;;6.88;4.35;;;28.30;96.30;;;;;;5108671;28;20039;-66
2022/08/01 11:35:26;;;;;;;9.20;4.75;;;28.20;96.10;;;;;;5103704;28;20083;-67
2022/08/01 11:37:58;;;;;;;8.70;4.75;;;28.20;96.30;;;;;;5108571;28;20035;-66
2022/08/01 11:40:28;;;;;;;7.28;5.03;;;28.10;96.80;;;;;;5103976;28;20031;-67
2022/08/01 11:43:12;;;;;;;6.50;4.78;;;28.30;96.40;;;;;;5102123;28;20491;-68
2022/08/01 11:45:55;;;;;;;12.30;5.80;;;28.30;96.70;;;;;;5106609;28;20055;-66
2022/08/01 11:48:26;;;;;;;8.15;7.03;;;28.10;96.90;;;;;;5102638;28;20104;-67
2022/08/01 11:50:56;;;;;;;7.55;5.50;;;27.80;97.30;;;;;;5108686;28;20035;-65
2022/08/01 11:53:22;;;;;;;7.25;5.30;;;27.70;97.60;;;;;;5107482;28;20039;-67
2022/08/01 11:55:50;;;;;;;7.03;5.40;;;27.70;97.20;;;;;;5109496;28;20067;-67
2022/08/01 11:58:24;;;;;;;6.68;5.30;;;27.60;97.00;;;;;;5112104;28;20032;-67
2022/08/01 12:00:56;;;;;;;6.63;5.43;;;27.70;96.80;;;;;;5107888;28;20379;-67
2022/08/01 12:03:32;;;;;;;7.82;5.75;;;27.80;96.60;;;;;;5114073;28;20024;-68
2022/08/01 12:05:58;;;;;;;6.03;4.60;;;28.00;96.50;;;;;;5108649;28;20094;-67
2022/08/01 12:08:27;;;;;;;6.60;5.30;;;28.20;96.40;;;;;;5107145;28;20096;-67
2022/08/01 12:10:53;;;;;;;7.93;5.10;;;28.60;95.50;;;;;;5107243;28;20036;-67
2022/08/01 12:13:20;;;;;;;7.47;4.90;;;28.60;95.60;;;;;;5111045;28;20123;-67
2022/08/01 12:15:46;;;;;;;6.88;5.13;;;28.50;95.60;;;;;;5104605;28;20047;-68
2022/08/01 12:18:11;;;;;;;8.95;5.65;;;28.50;95.80;;;;;;5105569;28;20047;-68
2022/08/01 12:20:39;;;;;;;6.87;5.33;;;28.30;95.80;;;;;;5109596;28;20578;-67
2022/08/01 12:23:08;;;;;;;6.25;5.07;;;28.20;96.30;;;;;;5106057;28;20031;-67
2022/08/01 12:25:35;;;;;;;7.75;5.05;;;28.00;96.60;;;;;;5111086;28;20067;-68
2022/08/01 12:28:03;;;;;;;7.38;4.78;;;27.90;97.00;;;;;;5107260;28;20028;-67
2022/08/01 12:30:30;;;;;;;6.32;5.20;;;27.90;97.20;;;;;;5110196;28;20072;-66
2022/08/01 12:32:57;;;;;;;8.52;5.07;;;27.80;97.50;;;;;;5109110;28;20111;-67
2022/08/01 12:35:24;;;;;;;;;;;27.60;97.80;;;;;;5104217;28;20550;-67
2022/08/01 12:37:54;;;;;;;6.85;4.85;;;27.60;98.10;;;;;;5110582;28;19966;-67
2022/08/01 12:40:21;;;;;;;6.25;4.70;;;27.50;98.00;;;;;;5104656;28;20052;-66
2022/08/01 12:42:49;;;;;;;6.72;4.80;;;27.40;98.00;;;;;;5111140;28;20036;-68
2022/08/01 12:45:19;;;;;;;10.05;5.15;;;27.50;97.60;;;;;;5111990;28;20022;-67
2022/08/01 12:47:46;;;;;;;7.45;5.18;;;27.70;97.40;;;;;;5109398;28;20031;-67
2022/08/01 12:50:17;;;;;;;6.28;4.85;;;27.90;96.60;;;;;;5110266;28;20110;-65
2022/08/01 12:52:43;;;;;;;6.50;4.70;;;28.00;96.50;;;;;;5108807;28;20048;-67
2022/08/01 12:55:10;;;;;;;9.30;4.50;;;28.10;96.90;;;;;;5112004;28;20071;-67
2022/08/01 12:57:38;;;;;;;7.13;4.75;;;28.10;96.60;;;;;;5105961;28;20027;-67
2022/08/01 13:00:14;;;;;;;6.50;4.80;;;27.90;96.90;;;;;;5110144;28;20032;-67